Time;durP1;ratioP1;P1;durP2;ratioP2;P2;SDS_P1;SDS_P2;PMS_P1;PMS_P2;Temp;Humidity;BMP_temperature;BMP_pressure;BME280_temperature;BME280_humidity;BME280_pressure;Samples;Min_cycle;Max_cycle;Signal;HPM_P1;HPM_P2
2021/03/17 00:02:11;;;;;;;3.10;2.90;;;;;;;;;;5063955;28;20418;-87
2021/03/17 00:04:37;;;;;;;3.45;3.25;;;;;;;;;;5070329;28;20404;-87
2021/03/17 00:07:03;;;;;;;3.53;3.33;;;;;;;;;;5089992;28;20764;-86
2021/03/17 00:09:29;;;;;;;3.05;2.95;;;;;;;;;;5089601;28;21133;-86
2021/03/17 00:11:55;;;;;;;3.05;2.95;;;;;;;;;;5074268;28;20963;-86
2021/03/17 00:14:21;;;;;;;2.90;2.80;;;;;;;;;;5087213;28;20415;-86
2021/03/17 00:16:47;;;;;;;3.10;2.80;;;;;;;;;;5095301;28;20977;-86
2021/03/17 00:19:13;;;;;;;2.50;2.40;;;;;;;;;;5103340;28;20469;-86
2021/03/17 00:21:39;;;;;;;2.65;2.47;;;;;;;;;;5087934;28;20427;-86
2021/03/17 00:24:05;;;;;;;3.10;2.95;;;;;;;;;;5072712;28;20409;-87
2021/03/17 00:26:31;;;;;;;2.28;2.17;;;;;;;;;;5087080;28;20765;-86
2021/03/17 00:28:57;;;;;;;2.90;2.70;;;;;;;;;;5103208;28;20451;-86
2021/03/17 00:31:23;;;;;;;2.85;2.70;;;;;;;;;;5053372;28;20402;-86
2021/03/17 00:33:49;;;;;;;2.90;2.70;;;;;;;;;;5078526;28;20405;-86
2021/03/17 00:36:15;;;;;;;3.13;2.92;;;;;;;;;;5083419;28;20462;-86
2021/03/17 00:38:43;;;;;;;3.50;3.30;;;;;;;;;;5091399;28;20401;-86
2021/03/17 00:41:09;;;;;;;2.80;2.67;;;;;;;;;;5094687;28;20906;-86
2021/03/17 00:43:35;;;;;;;2.60;2.50;;;;;;;;;;5084127;28;20399;-86
2021/03/17 00:46:01;;;;;;;3.10;3.00;;;;;;;;;;5084859;28;20887;-86
2021/03/17 00:48:27;;;;;;;2.85;2.70;;;;;;;;;;5091007;28;20905;-86
2021/03/17 00:50:53;;;;;;;2.80;2.70;;;;;;;;;;5074316;28;20400;-86
2021/03/17 00:53:19;;;;;;;2.72;2.58;;;;;;;;;;5106664;28;20406;-86
2021/03/17 00:55:45;;;;;;;2.85;2.75;;;;;;;;;;5076029;28;20413;-87
2021/03/17 00:58:11;;;;;;;2.88;2.78;;;;;;;;;;5071013;28;20484;-86
2021/03/17 01:00:37;;;;;;;2.87;2.77;;;;;;;;;;5070821;28;20390;-85
2021/03/17 01:03:03;;;;;;;3.03;2.83;;;;;;;;;;5070131;28;20463;-86
2021/03/17 01:05:29;;;;;;;3.28;3.08;;;;;;;;;;5087072;28;21017;-86
2021/03/17 01:07:55;;;;;;;3.80;3.50;;;;;;;;;;5069559;28;20442;-86
2021/03/17 01:10:25;;;;;;;3.53;3.33;;;;;;;;;;5084180;28;20391;-86
2021/03/17 01:12:51;;;;;;;3.73;3.43;;;;;;;;;;5089116;28;20406;-86
2021/03/17 01:15:18;;;;;;;3.55;3.35;;;;;;;;;;5106257;28;20848;-86
2021/03/17 01:17:44;;;;;;;3.55;3.30;;;;;;;;;;5079066;28;20401;-86
2021/03/17 01:20:10;;;;;;;3.17;3.00;;;;;;;;;;5089159;28;20831;-86
2021/03/17 01:22:36;;;;;;;4.13;3.72;;;;;;;;;;5090366;28;20401;-86
2021/03/17 01:25:02;;;;;;;3.67;3.47;;;;;;;;;;5076698;28;20425;-86
2021/03/17 01:27:28;;;;;;;4.10;3.90;;;;;;;;;;5086376;28;20490;-86
2021/03/17 01:29:56;;;;;;;4.45;4.15;;;;;;;;;;5086353;28;20971;-86
2021/03/17 01:32:22;;;;;;;4.67;4.37;;;;;;;;;;5088878;28;20456;-86
2021/03/17 01:34:47;;;;;;;4.43;4.13;;;;;;;;;;5094162;28;20395;-85
2021/03/17 01:37:13;;;;;;;3.97;3.70;;;;;;;;;;5086447;28;20401;-86
2021/03/17 01:39:39;;;;;;;3.97;3.67;;;;;;;;;;5069410;28;20485;-86
2021/03/17 01:42:06;;;;;;;3.85;3.58;;;;;;;;;;5086238;28;20401;-86
2021/03/17 01:44:32;;;;;;;3.50;3.30;;;;;;;;;;5086192;28;20458;-86
2021/03/17 01:46:57;;;;;;;3.70;3.50;;;;;;;;;;5069597;28;20461;-86
2021/03/17 01:49:23;;;;;;;3.42;3.17;;;;;;;;;;5090574;28;20784;-86
2021/03/17 01:51:49;;;;;;;4.07;3.78;;;;;;;;;;5094679;28;20491;-86
2021/03/17 01:54:15;;;;;;;3.75;3.55;;;;;;;;;;5088951;28;20392;-86
2021/03/17 01:56:41;;;;;;;4.22;3.92;;;;;;;;;;5080427;28;20417;-86
2021/03/17 01:59:07;;;;;;;3.73;3.53;;;;;;;;;;5076112;28;20399;-87
2021/03/17 02:01:33;;;;;;;3.25;3.10;;;;;;;;;;5068550;28;20397;-86
2021/03/17 02:03:59;;;;;;;4.35;3.47;;;;;;;;;;5085663;28;20408;-86
2021/03/17 02:06:25;;;;;;;3.83;3.63;;;;;;;;;;5082635;28;20474;-86
2021/03/17 02:08:51;;;;;;;3.85;3.63;;;;;;;;;;5083522;28;20408;-86
2021/03/17 02:11:17;;;;;;;3.90;3.70;;;;;;;;;;5072617;28;20424;-86
2021/03/17 02:13:49;;;;;;;3.60;3.50;;;;;;;;;;5093432;28;20467;-86
2021/03/17 02:16:20;;;;;;;3.97;3.77;;;;;;;;;;5090659;28;20445;-86
2021/03/17 02:18:49;;;;;;;3.88;3.42;;;;;;;;;;5105300;28;20407;-86
2021/03/17 02:21:21;;;;;;;3.70;3.50;;;;;;;;;;5071194;28;20470;-86
2021/03/17 02:23:53;;;;;;;3.60;3.40;;;;;;;;;;5080154;28;20904;-86
2021/03/17 02:26:38;;;;;;;3.38;3.17;;;;;;;;;;5058186;28;20417;-86
2021/03/17 02:29:10;;;;;;;3.53;3.33;;;;;;;;;;5071290;28;20492;-86
2021/03/17 02:31:55;;;;;;;3.40;3.22;;;;;;;;;;5073786;28;20459;-86
2021/03/17 02:34:22;;;;;;;3.58;3.28;;;;;;;;;;5053148;28;20389;-86
2021/03/17 02:36:53;;;;;;;3.85;3.58;;;;;;;;;;5074712;28;20496;-86
2021/03/17 02:39:20;;;;;;;4.07;3.70;;;;;;;;;;5089751;28;20399;-86
2021/03/17 02:42:04;;;;;;;3.40;3.20;;;;;;;;;;5085242;28;20429;-86
2021/03/17 02:44:30;;;;;;;3.38;3.13;;;;;;;;;;5062686;28;20437;-86
2021/03/17 02:46:56;;;;;;;3.25;3.15;;;;;;;;;;5089787;28;20429;-86
2021/03/17 02:49:23;;;;;;;4.00;3.70;;;;;;;;;;5101473;28;20427;-86
2021/03/17 02:51:55;;;;;;;4.00;3.70;;;;;;;;;;5098385;28;20413;-87
2021/03/17 02:54:22;;;;;;;3.10;2.90;;;;;;;;;;5101515;27;20428;-85
2021/03/17 02:56:57;;;;;;;2.90;2.70;;;;;;;;;;5100176;28;20408;-86
2021/03/17 02:59:24;;;;;;;4.40;4.10;;;;;;;;;;5094052;28;20399;-86
2021/03/17 03:01:51;;;;;;;5.10;4.70;;;;;;;;;;5075873;28;20413;-86
2021/03/17 03:04:17;;;;;;;4.50;4.20;;;;;;;;;;5067727;28;20424;-86
2021/03/17 03:06:44;;;;;;;4.88;4.47;;;;;;;;;;5084418;28;20870;-86
2021/03/17 03:09:10;;;;;;;4.75;4.35;;;;;;;;;;5089772;28;20401;-86
2021/03/17 03:11:36;;;;;;;4.68;4.28;;;;;;;;;;5084820;28;20403;-86
2021/03/17 03:14:03;;;;;;;4.63;4.32;;;;;;;;;;5068369;28;20443;-86
2021/03/17 03:16:29;;;;;;;4.53;4.30;;;;;;;;;;5069387;28;20417;-86
2021/03/17 03:18:55;;;;;;;4.80;4.50;;;;;;;;;;5103931;28;20453;-86
2021/03/17 03:21:22;;;;;;;5.28;4.97;;;;;;;;;;5082900;28;20414;-86
2021/03/17 03:23:48;;;;;;;4.70;4.40;;;;;;;;;;5070991;28;20423;-86
2021/03/17 03:26:14;;;;;;;5.43;5.03;;;;;;;;;;5091626;27;20401;-86
2021/03/17 03:28:40;;;;;;;5.95;5.50;;;;;;;;;;5067154;28;20402;-85
2021/03/17 03:31:09;;;;;;;5.80;5.40;;;;;;;;;;5067603;28;20416;-86
2021/03/17 03:33:35;;;;;;;5.55;5.15;;;;;;;;;;5075054;28;20412;-86
2021/03/17 03:36:01;;;;;;;5.28;4.85;;;;;;;;;;5073830;28;20908;-85
2021/03/17 03:38:27;;;;;;;5.35;4.93;;;;;;;;;;5084019;28;20440;-86
2021/03/17 03:40:53;;;;;;;5.93;5.53;;;;;;;;;;5067099;28;20413;-86
2021/03/17 03:43:19;;;;;;;5.18;4.78;;;;;;;;;;5067046;28;20397;-86
2021/03/17 03:45:45;;;;;;;6.00;5.47;;;;;;;;;;5086093;28;20412;-86
2021/03/17 03:48:11;;;;;;;5.70;5.22;;;;;;;;;;5094733;28;20457;-86
2021/03/17 03:50:41;;;;;;;4.75;4.40;;;;;;;;;;5074689;28;20402;-86
2021/03/17 03:53:19;;;;;;;5.13;4.60;;;;;;;;;;5090112;28;20756;-86
2021/03/17 03:55:45;;;;;;;5.05;4.70;;;;;;;;;;5051518;28;20401;-86
2021/03/17 03:58:12;;;;;;;4.90;4.45;;;;;;;;;;5051713;28;20963;-86
2021/03/17 04:00:38;;;;;;;4.55;4.25;;;;;;;;;;5083569;28;20427;-86
2021/03/17 04:03:04;;;;;;;4.60;4.25;;;;;;;;;;5083468;28;20441;-87
2021/03/17 04:05:32;;;;;;;4.60;4.30;;;;;;;;;;5083810;28;20805;-86
2021/03/17 04:07:58;;;;;;;4.78;4.47;;;;;;;;;;5071197;28;20442;-86
2021/03/17 04:10:24;;;;;;;5.30;4.90;;;;;;;;;;5071256;28;20888;-86
2021/03/17 04:12:51;;;;;;;5.32;4.82;;;;;;;;;;5066495;28;20915;-86
2021/03/17 04:15:17;;;;;;;5.10;4.60;;;;;;;;;;5066847;28;20979;-86
2021/03/17 04:17:56;;;;;;;5.05;4.75;;;;;;;;;;5066661;28;20526;-86
2021/03/17 04:20:24;;;;;;;5.67;5.13;;;;;;;;;;5083481;28;20498;-86
2021/03/17 04:22:50;;;;;;;5.47;4.97;;;;;;;;;;5069724;28;20385;-85
2021/03/17 04:25:16;;;;;;;5.10;4.70;;;;;;;;;;5073391;28;20937;-86
2021/03/17 04:27:46;;;;;;;5.22;4.90;;;;;;;;;;5082649;28;20407;-86
2021/03/17 04:30:12;;;;;;;6.13;5.63;;;;;;;;;;5073951;28;20832;-86
2021/03/17 04:32:38;;;;;;;5.60;5.10;;;;;;;;;;5090822;28;20480;-86
2021/03/17 04:35:06;;;;;;;5.88;5.47;;;;;;;;;;5082466;28;20473;-86
2021/03/17 04:37:33;;;;;;;6.00;5.40;;;;;;;;;;5077425;28;20409;-86
2021/03/17 04:39:59;;;;;;;6.72;6.18;;;;;;;;;;5079975;28;20397;-86
2021/03/17 04:42:25;;;;;;;6.05;5.63;;;;;;;;;;5066613;28;20419;-87
2021/03/17 04:44:52;;;;;;;5.47;5.13;;;;;;;;;;5085225;28;20394;-87
2021/03/17 04:47:18;;;;;;;5.70;5.30;;;;;;;;;;5085608;27;20412;-86
2021/03/17 04:49:44;;;;;;;5.28;4.97;;;;;;;;;;5102098;28;20894;-87
2021/03/17 04:52:12;;;;;;;6.20;5.72;;;;;;;;;;5091701;28;20822;-86
2021/03/17 04:54:38;;;;;;;6.07;5.63;;;;;;;;;;5058189;28;20411;-86
2021/03/17 04:57:04;;;;;;;8.25;5.72;;;;;;;;;;5076992;28;20409;-86
2021/03/17 04:59:30;;;;;;;6.00;5.60;;;;;;;;;;5062100;28;20400;-85
2021/03/17 05:01:56;;;;;;;5.97;5.57;;;;;;;;;;5057826;28;20565;-86
2021/03/17 05:04:22;;;;;;;6.53;6.10;;;;;;;;;;5056855;28;20398;-86
2021/03/17 05:06:48;;;;;;;6.47;5.88;;;;;;;;;;5078668;28;20507;-86
2021/03/17 05:09:15;;;;;;;6.50;6.00;;;;;;;;;;5107793;28;20940;-86
2021/03/17 05:11:42;;;;;;;7.35;6.65;;;;;;;;;;5078444;28;20414;-86
2021/03/17 05:14:08;;;;;;;6.90;6.32;;;;;;;;;;5073355;28;20512;-86
2021/03/17 05:16:35;;;;;;;6.55;6.10;;;;;;;;;;5105785;28;20402;-86
2021/03/17 05:19:00;;;;;;;7.03;6.32;;;;;;;;;;5092396;28;20390;-86
2021/03/17 05:21:27;;;;;;;7.47;6.87;;;;;;;;;;5058325;28;20820;-85
2021/03/17 05:23:53;;;;;;;8.10;7.30;;;;;;;;;;5083257;28;21033;-86
2021/03/17 05:26:19;;;;;;;11.25;8.48;;;;;;;;;;5089270;28;20418;-86
2021/03/17 05:28:45;;;;;;;9.38;8.55;;;;;;;;;;5097182;28;20402;-86
2021/03/17 05:31:11;;;;;;;9.70;8.90;;;;;;;;;;5095356;27;20888;-86
2021/03/17 05:33:37;;;;;;;10.63;9.63;;;;;;;;;;5069948;28;20448;-86
2021/03/17 05:36:03;;;;;;;11.18;10.23;;;;;;;;;;5076805;28;20413;-86
2021/03/17 05:38:29;;;;;;;12.80;11.50;;;;;;;;;;5070146;28;20500;-85
2021/03/17 05:40:56;;;;;;;14.38;12.88;;;;;;;;;;5081450;28;20448;-86
2021/03/17 05:43:22;;;;;;;14.48;13.07;;;;;;;;;;5069827;28;21012;-86
2021/03/17 05:45:47;;;;;;;16.08;14.50;;;;;;;;;;5079639;28;20407;-86
2021/03/17 05:48:14;;;;;;;15.50;13.90;;;;;;;;;;5059542;28;20421;-85
2021/03/17 05:50:40;;;;;;;15.10;13.50;;;;;;;;;;5079798;28;20406;-86
2021/03/17 05:53:07;;;;;;;14.77;13.38;;;;;;;;;;5091725;27;20464;-86
2021/03/17 05:55:33;;;;;;;15.20;13.80;;;;;;;;;;5070732;28;20464;-86
2021/03/17 05:57:59;;;;;;;14.18;12.85;;;;;;;;;;5086341;28;20405;-86
2021/03/17 06:00:25;;;;;;;11.98;10.88;;;;;;;;;;5069030;28;20464;-85
2021/03/17 06:02:51;;;;;;;14.32;12.95;;;;;;;;;;5068734;28;20427;-86
2021/03/17 06:05:18;;;;;;;13.77;12.48;;;;;;;;;;5091815;27;20455;-87
2021/03/17 06:08:02;;;;;;;12.75;11.50;;;;;;;;;;5068973;28;20908;-86
2021/03/17 06:10:28;;;;;;;13.97;12.67;;;;;;;;;;5068627;28;21053;-86
2021/03/17 06:12:58;;;;;;;10.38;9.48;;;;;;;;;;5051321;28;20526;-86
2021/03/17 06:15:24;;;;;;;10.80;9.80;;;;;;;;;;5078429;28;20418;-87
2021/03/17 06:18:03;;;;;;;12.77;11.57;;;;;;;;;;5052758;28;20407;-86
2021/03/17 06:20:29;;;;;;;12.43;11.23;;;;;;;;;;5051626;28;20431;-85
2021/03/17 06:22:58;;;;;;;12.35;11.15;;;;;;;;;;5055403;28;20874;-86
2021/03/17 06:25:23;;;;;;;12.85;11.43;;;;;;;;;;5094660;28;20462;-86
2021/03/17 06:27:49;;;;;;;12.38;11.10;;;;;;;;;;5080534;28;20802;-86
2021/03/17 06:30:16;;;;;;;11.95;10.80;;;;;;;;;;5098463;28;20447;-86
2021/03/17 06:32:42;;;;;;;11.50;10.47;;;;;;;;;;5088731;28;20399;-85
2021/03/17 06:35:21;;;;;;;11.32;10.23;;;;;;;;;;5059003;28;20483;-86
2021/03/17 06:37:47;;;;;;;11.07;10.07;;;;;;;;;;5073254;28;20473;-85
2021/03/17 06:40:39;;;;;;;11.82;10.73;;;;;;;;;;5097009;27;20403;-85
2021/03/17 06:43:05;;;;;;;11.40;10.35;;;;;;;;;;5055569;28;20392;-87
2021/03/17 06:45:32;;;;;;;11.05;10.00;;;;;;;;;;5091421;28;20416;-85
2021/03/17 06:48:00;;;;;;;11.43;10.32;;;;;;;;;;5065033;28;20427;-86
2021/03/17 06:50:29;;;;;;;11.07;10.18;;;;;;;;;;5095048;28;20418;-86
2021/03/17 06:52:55;;;;;;;12.90;11.60;;;;;;;;;;5088250;28;20399;-85
2021/03/17 06:55:22;;;;;;;13.13;11.93;;;;;;;;;;5079254;28;20393;-86
2021/03/17 06:57:48;;;;;;;12.77;11.48;;;;;;;;;;5071339;28;20414;-88
2021/03/17 07:00:20;;;;;;;13.05;11.75;;;;;;;;;;5084163;28;20420;-86
2021/03/17 07:03:22;;;;;;;14.68;12.48;;;;;;;;;;5082539;28;20742;-87
2021/03/17 07:05:48;;;;;;;15.00;12.40;;;;;;;;;;5031065;28;20394;-89
2021/03/17 07:08:14;;;;;;;13.63;12.23;;;;;;;;;;5053785;28;20557;-86
2021/03/17 07:10:44;;;;;;;15.07;12.00;;;;;;;;;;5092510;28;20427;-86
2021/03/17 07:13:11;;;;;;;12.70;11.40;;;;;;;;;;5073950;28;20488;-85
2021/03/17 07:15:37;;;;;;;13.82;12.38;;;;;;;;;;5092494;28;20396;-86
2021/03/17 07:18:23;;;;;;;13.20;11.25;;;;;;;;;;5087854;28;20400;-85
2021/03/17 07:20:50;;;;;;;14.48;11.73;;;;;;;;;;5070738;28;20383;-85
2021/03/17 07:23:28;;;;;;;11.57;10.30;;;;;;;;;;5072296;28;20414;-86
2021/03/17 07:26:17;;;;;;;13.18;10.73;;;;;;;;;;5090864;28;20485;-85
2021/03/17 07:28:49;;;;;;;12.80;10.75;;;;;;;;;;5088289;28;20505;-86
2021/03/17 07:31:15;;;;;;;13.32;11.73;;;;;;;;;;5098490;28;20418;-85
2021/03/17 07:33:41;;;;;;;13.77;12.40;;;;;;;;;;5085135;28;20391;-86
2021/03/17 07:36:07;;;;;;;14.95;12.32;;;;;;;;;;5070350;28;20801;-86
2021/03/17 07:38:33;;;;;;;14.10;12.02;;;;;;;;;;5063417;28;20388;-86
2021/03/17 07:40:59;;;;;;;14.13;12.00;;;;;;;;;;5075355;28;20419;-86
2021/03/17 07:43:26;;;;;;;16.97;13.00;;;;;;;;;;5070421;28;20517;-86
2021/03/17 07:45:52;;;;;;;16.48;13.18;;;;;;;;;;5070533;28;20399;-85
2021/03/17 07:48:18;;;;;;;20.13;14.70;;;;;;;;;;5070229;28;20430;-86
2021/03/17 07:50:44;;;;;;;16.42;14.35;;;;;;;;;;5103536;28;20720;-86
2021/03/17 07:53:36;;;;;;;16.85;14.25;;;;;;;;;;5087859;28;20403;-86
2021/03/17 07:56:02;;;;;;;17.42;14.75;;;;;;;;;;5066486;28;20382;-86
2021/03/17 07:58:28;;;;;;;20.25;15.15;;;;;;;;;;5080316;28;20406;-85
2021/03/17 08:00:54;;;;;;;20.77;15.60;;;;;;;;;;5104322;28;20398;-86
2021/03/17 08:03:20;;;;;;;25.80;16.65;;;;;;;;;;5071334;28;20894;-86
2021/03/17 08:05:46;;;;;;;19.05;15.65;;;;;;;;;;5070436;28;20388;-86
2021/03/17 08:08:13;;;;;;;21.50;16.60;;;;;;;;;;5096589;28;20479;-86
2021/03/17 08:10:40;;;;;;;19.50;15.77;;;;;;;;;;5086895;28;20474;-86
2021/03/17 08:13:06;;;;;;;17.52;14.43;;;;;;;;;;5087056;28;20403;-86
2021/03/17 08:15:32;;;;;;;17.30;14.95;;;;;;;;;;5087048;28;20408;-86
2021/03/17 08:17:58;;;;;;;20.23;15.50;;;;;;;;;;5086493;28;20978;-86
2021/03/17 08:20:27;;;;;;;17.70;14.60;;;;;;;;;;5078089;28;20845;-86
2021/03/17 08:22:53;;;;;;;17.38;14.38;;;;;;;;;;5069371;28;20438;-86
2021/03/17 08:25:41;;;;;;;16.33;14.07;;;;;;;;;;5087161;28;20407;-86
2021/03/17 08:28:19;;;;;;;15.80;14.13;;;;;;;;;;5079413;28;20414;-86
2021/03/17 08:30:45;;;;;;;18.15;14.70;;;;;;;;;;5100513;28;20829;-86
2021/03/17 08:33:11;;;;;;;13.27;11.77;;;;;;;;;;5086672;28;20396;-86
2021/03/17 08:35:56;;;;;;;12.43;10.67;;;;;;;;;;5070119;28;20488;-86
2021/03/17 08:38:22;;;;;;;9.85;8.85;;;;;;;;;;5086593;28;20456;-87
2021/03/17 08:40:48;;;;;;;10.40;9.35;;;;;;;;;;5086348;28;20391;-87
2021/03/17 08:43:30;;;;;;;10.00;9.00;;;;;;;;;;5069583;28;20975;-87
2021/03/17 08:46:12;;;;;;;11.27;10.23;;;;;;;;;;5098576;28;20474;-88
2021/03/17 08:48:57;;;;;;;10.95;10.02;;;;;;;;;;5093727;28;20482;-86
2021/03/17 08:51:41;;;;;;;12.68;11.38;;;;;;;;;;5071633;28;20755;-87
2021/03/17 08:54:26;;;;;;;12.23;11.13;;;;;;;;;;5101221;28;20741;-88
2021/03/17 08:56:52;;;;;;;12.73;11.52;;;;;;;;;;5087080;28;20746;-86
2021/03/17 08:59:21;;;;;;;12.13;10.85;;;;;;;;;;5086270;28;20383;-87
2021/03/17 09:01:47;;;;;;;12.13;9.98;;;;;;;;;;5074060;28;20827;-86
2021/03/17 09:04:32;;;;;;;11.80;9.88;;;;;;;;;;5050676;28;20475;-86
2021/03/17 09:07:10;;;;;;;9.80;8.77;;;;;;;;;;5081830;28;20416;-87
2021/03/17 09:09:49;;;;;;;9.88;8.90;;;;;;;;;;5047528;28;20485;-86
2021/03/17 09:12:16;;;;;;;10.13;9.13;;;;;;;;;;5097332;27;20398;-88
2021/03/17 09:14:42;;;;;;;10.57;9.43;;;;;;;;;;5079938;28;20407;-87
2021/03/17 09:17:15;;;;;;;10.63;9.52;;;;;;;;;;5074765;28;20403;-87
2021/03/17 09:19:56;;;;;;;8.98;7.57;;;;;;;;;;5090037;28;20797;-87
2021/03/17 09:22:32;;;;;;;8.50;7.70;;;;;;;;;;5094143;28;20504;-87
2021/03/17 09:24:58;;;;;;;8.27;7.38;;;;;;;;;;5079182;28;20444;-87
2021/03/17 09:27:23;;;;;;;9.23;8.25;;;;;;;;;;5057186;28;20443;-88
2021/03/17 09:29:49;;;;;;;9.07;8.25;;;;;;;;;;5083057;28;20419;-87
2021/03/17 09:32:17;;;;;;;8.43;7.63;;;;;;;;;;5079760;28;20411;-87
2021/03/17 09:34:43;;;;;;;9.27;8.48;;;;;;;;;;5079718;28;20469;-87
2021/03/17 09:37:09;;;;;;;10.98;9.60;;;;;;;;;;5099519;28;20443;-87
2021/03/17 09:39:35;;;;;;;9.80;8.80;;;;;;;;;;5099015;28;20694;-87
2021/03/17 09:42:01;;;;;;;9.27;8.38;;;;;;;;;;5088951;28;20396;-87
2021/03/17 09:44:27;;;;;;;13.00;9.43;;;;;;;;;;5095803;28;20737;-87
2021/03/17 09:46:56;;;;;;;10.35;8.88;;;;;;;;;;5070832;28;20398;-87
2021/03/17 09:49:26;;;;;;;9.13;8.30;;;;;;;;;;5099504;28;20411;-86
2021/03/17 09:51:55;;;;;;;11.00;8.02;;;;;;;;;;5088622;28;20434;-87
2021/03/17 09:54:22;;;;;;;12.17;8.60;;;;;;;;;;5079149;28;20411;-86
2021/03/17 09:56:51;;;;;;;8.63;7.72;;;;;;;;;;5069238;28;20427;-87
2021/03/17 09:59:30;;;;;;;11.90;8.30;;;;;;;;;;5092310;28;20400;-86
2021/03/17 10:01:57;;;;;;;8.95;8.05;;;;;;;;;;5103084;28;20415;-87
2021/03/17 10:04:33;;;;;;;9.90;8.75;;;;;;;;;;5068494;28;20386;-87
2021/03/17 10:06:59;;;;;;;7.90;7.10;;;;;;;;;;5071203;28;20466;-86
2021/03/17 10:09:26;;;;;;;8.00;7.20;;;;;;;;;;5100696;28;20754;-86
2021/03/17 10:11:58;;;;;;;6.57;5.97;;;;;;;;;;5072158;28;20398;-87
2021/03/17 10:14:25;;;;;;;6.60;5.88;;;;;;;;;;5088528;28;20499;-87
2021/03/17 10:16:51;;;;;;;8.57;7.15;;;;;;;;;;5080130;28;20407;-87
2021/03/17 10:19:17;;;;;;;8.00;6.38;;;;;;;;;;5080524;28;20400;-87
2021/03/17 10:21:43;;;;;;;7.50;6.70;;;;;;;;;;5088796;28;20774;-84
2021/03/17 10:24:12;;;;;;;6.78;5.80;;;;;;;;;;5078677;28;20448;-84
2021/03/17 10:26:38;;;;;;;6.63;5.35;;;;;;;;;;5071946;28;20446;-84
2021/03/17 10:29:07;;;;;;;6.13;5.53;;;;;;;;;;5090918;28;20492;-84
2021/03/17 10:31:34;;;;;;;7.32;6.57;;;;;;;;;;5071636;28;20395;-84
2021/03/17 10:34:13;;;;;;;6.88;6.10;;;;;;;;;;5101852;28;20411;-85
2021/03/17 10:37:08;;;;;;;7.43;6.28;;;;;;;;;;5084267;28;20420;-85
2021/03/17 10:39:35;;;;;;;9.67;7.07;;;;;;;;;;5071172;28;20501;-85
2021/03/17 10:42:01;;;;;;;8.35;7.55;;;;;;;;;;5084480;28;20396;-85
2021/03/17 10:44:28;;;;;;;7.30;6.18;;;;;;;;;;5088551;28;20387;-85
2021/03/17 10:47:04;;;;;;;6.53;5.82;;;;;;;;;;5091454;28;20536;-85
2021/03/17 10:49:30;;;;;;;5.85;5.32;;;;;;;;;;5073016;28;20821;-85
2021/03/17 10:51:57;;;;;;;5.35;4.75;;;;;;;;;;5090206;28;20889;-86
2021/03/17 10:54:38;;;;;;;5.10;4.63;;;;;;;;;;5107823;28;20537;-85
2021/03/17 10:57:04;;;;;;;5.43;5.00;;;;;;;;;;5088002;28;20890;-86
2021/03/17 10:59:31;;;;;;;5.38;4.88;;;;;;;;;;5071850;28;20437;-86
2021/03/17 11:02:14;;;;;;;5.00;4.55;;;;;;;;;;5091217;28;20487;-86
2021/03/17 11:04:40;;;;;;;5.35;4.85;;;;;;;;;;5091264;28;20401;-86
2021/03/17 11:07:06;;;;;;;4.65;4.25;;;;;;;;;;5065694;28;20894;-86
2021/03/17 11:09:39;;;;;;;5.37;4.83;;;;;;;;;;5083264;28;20394;-86
2021/03/17 11:12:11;;;;;;;5.20;4.80;;;;;;;;;;5072105;28;20494;-85
2021/03/17 11:14:37;;;;;;;7.15;5.85;;;;;;;;;;5098982;28;20431;-85
2021/03/17 11:17:04;;;;;;;7.30;5.55;;;;;;;;;;5082298;28;20483;-85
2021/03/17 11:19:30;;;;;;;8.02;5.78;;;;;;;;;;5104203;27;20899;-85
2021/03/17 11:21:55;;;;;;;8.00;5.60;;;;;;;;;;5053763;28;20486;-85
2021/03/17 11:24:22;;;;;;;8.07;7.30;;;;;;;;;;5092202;28;20464;-85
2021/03/17 11:26:49;;;;;;;5.97;5.38;;;;;;;;;;5059976;28;20408;-85
2021/03/17 11:29:18;;;;;;;6.07;5.23;;;;;;;;;;5096866;28;20446;-84
2021/03/17 11:31:45;;;;;;;7.13;6.03;;;;;;;;;;5093201;28;20435;-85
2021/03/17 11:34:12;;;;;;;9.43;5.70;;;;;;;;;;5098534;28;20895;-85
2021/03/17 11:36:38;;;;;;;5.55;4.75;;;;;;;;;;5103741;28;20883;-85
2021/03/17 11:39:05;;;;;;;4.63;4.18;;;;;;;;;;5078443;28;20494;-85
2021/03/17 11:41:31;;;;;;;4.38;4.00;;;;;;;;;;5080265;28;20899;-85
2021/03/17 11:43:57;;;;;;;5.32;4.38;;;;;;;;;;5056166;28;20395;-85
2021/03/17 11:46:23;;;;;;;5.20;4.68;;;;;;;;;;5093566;28;20408;-86
2021/03/17 11:48:49;;;;;;;4.93;4.50;;;;;;;;;;5056126;28;20422;-84
2021/03/17 11:51:15;;;;;;;5.73;4.60;;;;;;;;;;5075947;28;20399;-83
2021/03/17 11:53:41;;;;;;;5.70;4.43;;;;;;;;;;5080179;28;20398;-85
2021/03/17 11:56:07;;;;;;;5.05;4.28;;;;;;;;;;5075281;28;20463;-84
2021/03/17 11:58:34;;;;;;;5.22;4.50;;;;;;;;;;5086773;28;20419;-84
2021/03/17 12:01:02;;;;;;;5.22;4.82;;;;;;;;;;5093936;28;20415;-84
2021/03/17 12:03:28;;;;;;;5.70;5.20;;;;;;;;;;5072525;28;20404;-84
2021/03/17 12:05:54;;;;;;;8.85;5.18;;;;;;;;;;5071466;28;20467;-84
2021/03/17 12:08:20;;;;;;;7.47;5.75;;;;;;;;;;5085724;28;20458;-84
2021/03/17 12:10:49;;;;;;;5.60;4.80;;;;;;;;;;5095769;27;20390;-85
2021/03/17 12:13:21;;;;;;;5.68;5.10;;;;;;;;;;5093415;28;20401;-85
2021/03/17 12:15:47;;;;;;;5.70;5.10;;;;;;;;;;5070080;28;20388;-85
2021/03/17 12:18:13;;;;;;;4.32;3.92;;;;;;;;;;5082315;28;20398;-86
2021/03/17 12:20:39;;;;;;;3.90;3.60;;;;;;;;;;5086795;28;20767;-86
2021/03/17 12:23:05;;;;;;;3.53;3.22;;;;;;;;;;5085096;28;20419;-85
2021/03/17 12:25:31;;;;;;;3.05;2.88;;;;;;;;;;5085856;28;20482;-86
2021/03/17 12:27:57;;;;;;;2.92;2.72;;;;;;;;;;5078994;28;20420;-86
2021/03/17 12:30:23;;;;;;;3.10;3.00;;;;;;;;;;5096773;28;20419;-87
2021/03/17 12:32:50;;;;;;;3.55;3.35;;;;;;;;;;5060149;28;20404;-85
2021/03/17 12:35:16;;;;;;;4.22;4.03;;;;;;;;;;5059943;28;20404;-85
2021/03/17 12:37:42;;;;;;;3.63;3.33;;;;;;;;;;5080153;28;20410;-85
2021/03/17 12:40:09;;;;;;;3.97;3.67;;;;;;;;;;5101354;28;20414;-85
2021/03/17 12:42:35;;;;;;;3.00;2.90;;;;;;;;;;5062135;28;20408;-85
2021/03/17 12:45:01;;;;;;;3.17;2.97;;;;;;;;;;5083237;28;20391;-85
2021/03/17 12:47:31;;;;;;;2.45;2.35;;;;;;;;;;5108933;28;20409;-85
2021/03/17 12:49:57;;;;;;;3.10;2.90;;;;;;;;;;5094797;28;20404;-85
2021/03/17 12:52:23;;;;;;;3.50;3.40;;;;;;;;;;5063424;28;20411;-84
2021/03/17 12:54:49;;;;;;;3.80;3.60;;;;;;;;;;5085487;28;20456;-85
2021/03/17 12:57:15;;;;;;;4.18;3.97;;;;;;;;;;5091714;28;20401;-85
2021/03/17 12:59:41;;;;;;;5.05;4.65;;;;;;;;;;5057078;28;20487;-86
2021/03/17 13:02:07;;;;;;;4.00;3.80;;;;;;;;;;5100427;28;20467;-87
2021/03/17 13:04:36;;;;;;;3.50;3.30;;;;;;;;;;5080421;28;20382;-86
2021/03/17 13:07:02;;;;;;;4.45;4.15;;;;;;;;;;5082625;28;20405;-86
2021/03/17 13:09:28;;;;;;;4.72;4.32;;;;;;;;;;5075971;28;20415;-86
2021/03/17 13:11:55;;;;;;;3.83;3.63;;;;;;;;;;5103481;28;20388;-86
2021/03/17 13:14:24;;;;;;;5.65;4.75;;;;;;;;;;5074664;28;20414;-85
2021/03/17 13:16:53;;;;;;;4.40;4.00;;;;;;;;;;5073766;28;20736;-85
2021/03/17 13:19:19;;;;;;;4.15;3.75;;;;;;;;;;5073219;28;20412;-86
2021/03/17 13:21:45;;;;;;;5.43;5.03;;;;;;;;;;5089849;28;20468;-86
2021/03/17 13:24:14;;;;;;;4.82;4.43;;;;;;;;;;5103339;28;20405;-86
2021/03/17 13:26:41;;;;;;;3.30;3.10;;;;;;;;;;5082317;28;20433;-86
2021/03/17 13:29:07;;;;;;;3.30;3.10;;;;;;;;;;5088398;28;20423;-89
2021/03/17 13:31:33;;;;;;;3.87;3.57;;;;;;;;;;5074131;28;20388;-87
2021/03/17 13:33:59;;;;;;;2.72;2.63;;;;;;;;;;5107112;28;20441;-87
2021/03/17 13:36:25;;;;;;;3.17;2.97;;;;;;;;;;5079678;28;20900;-86
2021/03/17 13:38:51;;;;;;;1.92;1.83;;;;;;;;;;5052969;28;20401;-87
2021/03/17 13:41:17;;;;;;;1.90;1.80;;;;;;;;;;5086418;28;20749;-87
2021/03/17 13:43:43;;;;;;;1.80;1.73;;;;;;;;;;5086786;28;20442;-87
2021/03/17 13:46:10;;;;;;;1.58;1.50;;;;;;;;;;5086459;28;20401;-87
2021/03/17 13:48:36;;;;;;;1.20;1.20;;;;;;;;;;5070933;28;20500;-87
2021/03/17 13:51:02;;;;;;;2.10;1.88;;;;;;;;;;5102966;28;20399;-87
2021/03/17 13:53:28;;;;;;;1.73;1.63;;;;;;;;;;5072856;28;20409;-87
2021/03/17 13:56:01;;;;;;;1.50;1.40;;;;;;;;;;5070862;28;20424;-86
2021/03/17 13:58:27;;;;;;;1.67;1.57;;;;;;;;;;5088624;28;20728;-87
2021/03/17 14:00:56;;;;;;;1.58;1.58;;;;;;;;;;5088676;28;20471;-87
2021/03/17 14:03:22;;;;;;;2.58;1.80;;;;;;;;;;5079775;28;20484;-88
2021/03/17 14:05:48;;;;;;;1.88;1.85;;;;;;;;;;5061381;28;20568;-86
2021/03/17 14:08:15;;;;;;;1.90;1.80;;;;;;;;;;5090578;28;20512;-87
2021/03/17 14:10:47;;;;;;;3.17;2.20;;;;;;;;;;5068740;28;20401;-88
2021/03/17 14:13:13;;;;;;;2.30;2.20;;;;;;;;;;5092661;28;20397;-88
2021/03/17 14:15:39;;;;;;;2.05;1.73;;;;;;;;;;5064077;28;20402;-87
2021/03/17 14:18:05;;;;;;;1.90;1.80;;;;;;;;;;5085130;28;20410;-87
2021/03/17 14:20:31;;;;;;;1.90;1.80;;;;;;;;;;5052455;28;20398;-87
2021/03/17 14:22:58;;;;;;;2.35;2.25;;;;;;;;;;5074725;28;20431;-87
2021/03/17 14:25:24;;;;;;;1.40;1.38;;;;;;;;;;5080254;28;20408;-87
2021/03/17 14:27:50;;;;;;;1.55;1.55;;;;;;;;;;5071902;28;20438;-87
2021/03/17 14:30:16;;;;;;;1.50;1.50;;;;;;;;;;5088938;28;20388;-87
2021/03/17 14:32:42;;;;;;;1.73;1.63;;;;;;;;;;5082244;28;20405;-86
2021/03/17 14:35:08;;;;;;;1.33;1.33;;;;;;;;;;5060384;28;20481;-87
2021/03/17 14:37:34;;;;;;;1.65;1.55;;;;;;;;;;5094746;28;20408;-86
2021/03/17 14:40:00;;;;;;;1.17;1.17;;;;;;;;;;5088387;28;20750;-86
2021/03/17 14:42:26;;;;;;;4.47;1.83;;;;;;;;;;5093090;28;20921;-87